KILG

New Castle Airport

Wilmington, Delaware, USA
METAR KILG 190651Z AUTO 23004KT 10SM CLR M05/M09 A3009 RMK AO2 SLP190 T10501089
Observed Flight Rules
Jan-19 @ 06:51 UTC (30 minutes ago) Visual Flight Rules
Wind Visibility Clouds
230° at 4 knots 10 miles
  • Clear skies
Temperatures Readings
Current -5°C / 23°F
Dewpoint -9°C / 16°F
Humidity 74%
Altimeter 30.09" Hg
Pressure 1019 hPa
Elevation 28
METAR KILG 190651Z AUTO 23004KT 10SM CLR M05/M09 A3009 RMK AO2 SLP190 T10501089
Observed Flight Rules
Jan-19 @ 06:51 UTC
(30 minutes ago)
VFR
Wind Visibility
230° at 4 knots 10 miles
Clouds
  • Clear skies
Temperature Dewpoint
-5°C / 23°F -9°C / 16°F
Humidity Altimeter Pressure
74% 30.09" Hg 1019 hPa